Time;durP1;ratioP1;P1;durP2;ratioP2;P2;SDS_P1;SDS_P2;PMS_P1;PMS_P2;Temp;Humidity;BMP_temperature;BMP_pressure;BME280_temperature;BME280_humidity;BME280_pressure;Samples;Min_cycle;Max_cycle;Signal;HPM_P1;HPM_P2
2021/05/13 00:00:12;;;;;;;10.53;10.03;;;23.80;79.30;;;;;;3567568;40;20736;-51
2021/05/13 00:02:40;;;;;;;10.87;10.37;;;23.80;79.40;;;;;;3566115;40;20493;-53
2021/05/13 00:05:09;;;;;;;10.40;9.90;;;23.80;79.40;;;;;;3566123;40;20483;-52
2021/05/13 00:07:37;;;;;;;9.97;9.57;;;23.80;79.50;;;;;;3565782;40;20841;-54
2021/05/13 00:10:05;;;;;;;11.60;10.90;;;23.80;79.40;;;;;;3566104;40;20854;-53
2021/05/13 00:12:41;;;;;;;11.03;10.53;;;23.80;79.40;;;;;;3566630;40;20637;-52
2021/05/13 00:15:13;;;;;;;10.63;10.13;;;23.80;79.50;;;;;;3566797;40;20689;-52
2021/05/13 00:17:41;;;;;;;11.33;10.73;;;23.80;79.50;;;;;;3567397;40;20498;-52
2021/05/13 00:20:11;;;;;;;11.30;10.70;;;23.80;79.50;;;;;;3564754;40;20511;-52
2021/05/13 00:22:39;;;;;;;11.13;10.53;;;23.80;79.40;;;;;;3566245;40;21038;-51
2021/05/13 00:25:07;;;;;;;10.90;10.40;;;23.80;79.40;;;;;;3566787;40;20567;-52
2021/05/13 00:27:35;;;;;;;11.50;11.00;;;23.80;79.50;;;;;;3567365;40;20573;-52
2021/05/13 00:30:14;;;;;;;11.07;10.50;;;23.80;79.40;;;;;;3558296;40;20486;-54
2021/05/13 00:32:43;;;;;;;11.27;10.77;;;23.80;79.50;;;;;;3566759;40;20487;-51
2021/05/13 00:35:12;;;;;;;10.45;10.05;;;23.80;79.50;;;;;;3567446;40;20481;-54
2021/05/13 00:37:40;;;;;;;11.20;10.70;;;23.80;79.60;;;;;;3567022;40;20219;-51
2021/05/13 00:40:09;;;;;;;10.50;10.10;;;23.80;79.50;;;;;;3567033;40;20561;-54
2021/05/13 00:42:37;;;;;;;10.90;10.50;;;23.80;79.60;;;;;;3567118;40;20552;-53
2021/05/13 00:45:06;;;;;;;11.20;10.77;;;23.80;79.60;;;;;;3567185;40;20724;-52
2021/05/13 00:47:36;;;;;;;11.20;10.60;;;23.80;79.50;;;;;;3567011;40;20825;-51
2021/05/13 00:50:05;;;;;;;11.93;11.23;;;23.80;79.50;;;;;;3566793;40;20484;-52
2021/05/13 00:52:33;;;;;;;11.23;10.73;;;23.80;79.50;;;;;;3566711;40;20956;-54
2021/05/13 00:55:02;;;;;;;11.45;10.95;;;23.70;79.30;;;;;;3566371;40;20573;-55
2021/05/13 00:57:28;;;;;;;11.63;11.13;;;23.70;79.40;;;;;;3566269;40;20570;-55
2021/05/13 01:00:00;;;;;;;11.73;11.23;;;23.80;79.50;;;;;;3567101;40;20703;-52
2021/05/13 01:02:27;;;;;;;10.80;10.30;;;23.70;79.40;;;;;;3566957;40;20508;-53
2021/05/13 01:04:55;;;;;;;10.73;10.23;;;23.70;79.40;;;;;;3566101;40;20895;-53
2021/05/13 01:07:21;;;;;;;11.20;10.80;;;23.70;79.40;;;;;;3566026;40;20594;-51
2021/05/13 01:09:49;;;;;;;11.40;10.77;;;23.70;79.40;;;;;;3566363;40;20487;-53
2021/05/13 01:12:18;;;;;;;11.17;10.67;;;23.70;79.40;;;;;;3566489;40;20475;-51
2021/05/13 01:14:48;;;;;;;11.97;11.47;;;23.70;79.40;;;;;;3566119;40;20479;-53
2021/05/13 01:17:21;;;;;;;10.60;10.13;;;23.70;79.40;;;;;;3566320;40;20488;-52
2021/05/13 01:19:51;;;;;;;10.67;10.17;;;23.70;79.40;;;;;;3567097;40;20511;-54
2021/05/13 01:22:21;;;;;;;11.20;10.70;;;23.70;79.40;;;;;;3567042;40;20565;-52
2021/05/13 01:24:50;;;;;;;11.07;10.57;;;23.70;79.50;;;;;;3566856;40;20483;-52
2021/05/13 01:27:19;;;;;;;11.40;10.90;;;23.70;79.40;;;;;;3558190;40;21164;-52
2021/05/13 01:29:49;;;;;;;11.30;10.80;;;23.70;79.50;;;;;;3566404;40;20487;-52
2021/05/13 01:32:19;;;;;;;11.23;10.70;;;23.70;79.50;;;;;;3565370;40;20488;-51
2021/05/13 01:34:47;;;;;;;11.30;10.70;;;23.70;79.50;;;;;;3567112;40;20615;-52
2021/05/13 01:37:18;;;;;;;12.10;11.40;;;23.70;79.50;;;;;;3567048;40;20777;-51
2021/05/13 01:39:46;;;;;;;11.03;10.50;;;23.70;79.50;;;;;;3565557;40;20487;-51
2021/05/13 01:42:14;;;;;;;11.37;10.80;;;23.70;79.50;;;;;;3566199;40;20889;-53
2021/05/13 01:44:43;;;;;;;11.40;10.90;;;23.70;79.50;;;;;;3556937;40;21121;-51
2021/05/13 01:47:10;;;;;;;10.57;10.17;;;23.70;79.50;;;;;;3566544;40;20265;-52
2021/05/13 01:49:38;;;;;;;10.70;10.30;;;23.70;79.50;;;;;;3566710;40;20477;-52
2021/05/13 01:52:07;;;;;;;10.90;10.40;;;23.70;79.50;;;;;;3566141;40;20740;-53
2021/05/13 01:54:34;;;;;;;11.37;10.87;;;23.70;79.50;;;;;;3565865;40;20903;-54
2021/05/13 01:57:03;;;;;;;11.60;11.00;;;23.70;79.50;;;;;;3565551;40;20536;-55
2021/05/13 01:59:31;;;;;;;11.10;10.50;;;23.70;79.50;;;;;;3566405;40;20487;-53
2021/05/13 02:01:59;;;;;;;11.17;10.67;;;23.70;79.50;;;;;;3566610;40;20891;-51
2021/05/13 02:04:26;;;;;;;11.53;11.03;;;23.70;79.50;;;;;;3567090;40;20712;-51
2021/05/13 02:06:52;;;;;;;11.27;10.77;;;23.70;79.50;;;;;;3565504;40;20497;-54
2021/05/13 02:09:20;;;;;;;11.10;10.70;;;23.70;79.60;;;;;;3567348;40;20491;-52
2021/05/13 02:11:47;;;;;;;11.50;11.00;;;23.70;79.40;;;;;;3566069;40;20498;-52
2021/05/13 02:14:16;;;;;;;12.33;11.73;;;23.70;79.50;;;;;;3566389;40;20223;-51
2021/05/13 02:16:43;;;;;;;10.80;10.40;;;23.70;79.40;;;;;;3565814;40;20473;-54
2021/05/13 02:19:11;;;;;;;11.03;10.63;;;23.70;79.40;;;;;;3566122;40;20506;-51
2021/05/13 02:21:38;;;;;;;11.00;10.50;;;23.70;79.40;;;;;;3566150;40;20499;-51
2021/05/13 02:24:06;;;;;;;10.60;10.20;;;23.80;79.40;;;;;;3567553;40;20889;-51
2021/05/13 02:26:33;;;;;;;10.67;10.17;;;23.80;79.40;;;;;;3567116;40;20533;-53
2021/05/13 02:29:07;;;;;;;11.30;10.80;;;23.80;79.40;;;;;;3568165;40;20484;-51
2021/05/13 02:31:35;;;;;;;10.82;10.32;;;23.80;79.30;;;;;;3567232;40;20485;-52
2021/05/13 02:34:03;;;;;;;11.60;10.80;;;23.80;79.30;;;;;;3566681;40;20876;-53
2021/05/13 02:36:31;;;;;;;11.10;10.60;;;23.80;79.60;;;;;;3567363;40;20586;-52
2021/05/13 02:38:58;;;;;;;11.00;10.50;;;23.80;79.30;;;;;;3567534;40;20490;-55
2021/05/13 02:41:27;;;;;;;11.60;11.00;;;23.80;79.20;;;;;;3568220;40;20239;-54
2021/05/13 02:44:00;;;;;;;11.10;10.60;;;23.80;79.20;;;;;;3567949;40;20515;-52
2021/05/13 02:46:28;;;;;;;10.53;10.13;;;23.90;79.30;;;;;;3567597;40;20474;-55
2021/05/13 02:48:56;;;;;;;10.52;10.13;;;23.90;79.20;;;;;;3566750;40;20501;-51
2021/05/13 02:51:24;;;;;;;10.20;9.80;;;23.90;79.20;;;;;;3558403;40;20233;-51
2021/05/13 02:53:51;;;;;;;11.00;10.50;;;23.90;79.10;;;;;;3567780;40;20490;-54
2021/05/13 02:56:19;;;;;;;10.50;10.00;;;23.90;79.00;;;;;;3567698;40;20518;-55
2021/05/13 02:58:48;;;;;;;10.80;10.40;;;23.90;79.00;;;;;;3567740;40;20486;-51
2021/05/13 03:01:24;;;;;;;11.27;10.77;;;23.90;79.00;;;;;;3567635;40;20563;-52
2021/05/13 03:03:52;;;;;;;10.40;10.00;;;23.90;79.00;;;;;;3568026;40;20919;-52
2021/05/13 03:06:21;;;;;;;10.93;10.43;;;23.90;78.90;;;;;;3567442;40;20503;-53
2021/05/13 03:08:52;;;;;;;11.37;10.87;;;23.90;78.80;;;;;;3567173;40;20488;-52
2021/05/13 03:11:20;;;;;;;11.43;10.93;;;23.90;78.80;;;;;;3558566;40;20871;-54
2021/05/13 03:13:49;;;;;;;11.02;10.43;;;24.00;78.90;;;;;;3568437;40;20494;-52
2021/05/13 03:16:18;;;;;;;10.80;10.40;;;24.00;78.90;;;;;;3567323;40;20235;-54
2021/05/13 03:18:49;;;;;;;11.27;10.77;;;24.00;78.80;;;;;;3558024;40;20493;-52
2021/05/13 03:21:23;;;;;;;10.30;9.90;;;24.00;78.80;;;;;;3567629;40;20539;-52
2021/05/13 03:23:55;;;;;;;11.20;10.70;;;24.00;78.70;;;;;;3568876;40;20470;-51
2021/05/13 03:26:34;;;;;;;11.00;10.40;;;24.00;78.70;;;;;;3568060;40;20950;-51
2021/05/13 03:29:01;;;;;;;11.53;10.93;;;24.00;78.60;;;;;;3567748;40;20988;-52
2021/05/13 03:31:29;;;;;;;11.90;11.30;;;24.00;78.60;;;;;;3566605;40;20470;-54
2021/05/13 03:34:03;;;;;;;11.40;10.90;;;24.00;78.60;;;;;;3558171;40;20474;-51
2021/05/13 03:36:32;;;;;;;11.37;10.87;;;24.00;78.60;;;;;;3567882;40;20504;-51
2021/05/13 03:39:01;;;;;;;11.30;10.90;;;24.10;78.70;;;;;;3567415;40;20572;-55
2021/05/13 03:41:29;;;;;;;11.47;11.07;;;24.10;78.60;;;;;;3557744;40;20482;-52
2021/05/13 03:43:56;;;;;;;11.40;10.90;;;24.10;78.50;;;;;;3566388;40;20498;-54
2021/05/13 03:46:25;;;;;;;11.50;11.00;;;24.10;78.50;;;;;;3566699;40;20851;-55
2021/05/13 03:48:54;;;;;;;12.47;11.67;;;24.10;78.50;;;;;;3566459;40;20520;-52
2021/05/13 03:51:24;;;;;;;11.93;11.37;;;24.20;78.50;;;;;;3566230;40;20492;-54
2021/05/13 03:53:52;;;;;;;11.87;11.37;;;24.20;78.50;;;;;;3566622;40;20894;-53
2021/05/13 03:56:22;;;;;;;11.73;11.27;;;24.20;78.40;;;;;;3565002;40;21110;-54
2021/05/13 03:58:54;;;;;;;11.80;11.30;;;24.20;78.40;;;;;;3565542;40;20505;-53
2021/05/13 04:01:43;;;;;;;11.70;11.20;;;24.20;78.30;;;;;;3566431;40;20517;-53
2021/05/13 04:04:11;;;;;;;11.57;11.07;;;24.20;78.30;;;;;;3566881;40;20536;-53
2021/05/13 04:06:40;;;;;;;11.60;11.10;;;24.30;78.40;;;;;;3566055;40;20501;-51
2021/05/13 04:09:10;;;;;;;12.10;11.57;;;24.30;78.40;;;;;;3566596;40;20228;-52
2021/05/13 04:11:42;;;;;;;11.63;11.07;;;24.30;78.30;;;;;;3566585;40;20486;-55
2021/05/13 04:14:10;;;;;;;12.27;11.77;;;24.30;78.20;;;;;;3566162;40;20513;-52
2021/05/13 04:16:42;;;;;;;12.70;12.10;;;24.40;78.10;;;;;;3566325;40;20593;-53
2021/05/13 04:19:12;;;;;;;11.60;11.10;;;24.40;78.10;;;;;;3566107;40;20537;-52
2021/05/13 04:21:41;;;;;;;11.73;11.23;;;24.40;78.00;;;;;;3566419;40;20485;-53
2021/05/13 04:24:10;;;;;;;11.77;11.27;;;24.40;78.00;;;;;;3565976;40;20565;-53
2021/05/13 04:26:40;;;;;;;11.70;11.20;;;24.40;77.90;;;;;;3557028;40;20497;-54
2021/05/13 04:29:14;;;;;;;11.50;10.97;;;24.40;77.90;;;;;;3566716;40;20490;-51
2021/05/13 04:31:44;;;;;;;11.50;11.10;;;24.40;77.90;;;;;;3565795;40;20498;-51
2021/05/13 04:34:13;;;;;;;11.33;10.73;;;24.50;77.90;;;;;;3566147;40;20477;-54
2021/05/13 04:36:41;;;;;;;11.83;11.33;;;24.50;77.80;;;;;;3566540;40;20521;-53
2021/05/13 04:39:09;;;;;;;11.80;11.30;;;24.50;77.80;;;;;;3566665;40;20489;-51
2021/05/13 04:41:39;;;;;;;11.10;10.60;;;24.50;77.70;;;;;;3566944;40;20461;-52
2021/05/13 04:44:09;;;;;;;11.33;10.83;;;24.50;77.60;;;;;;3566980;40;20524;-54
2021/05/13 04:46:40;;;;;;;11.10;10.70;;;24.60;77.70;;;;;;3566447;40;20528;-54
2021/05/13 04:49:17;;;;;;;11.30;10.90;;;24.60;77.70;;;;;;3566471;40;20608;-53
2021/05/13 04:51:47;;;;;;;11.60;11.10;;;24.60;77.60;;;;;;3565286;40;20478;-54
2021/05/13 04:54:17;;;;;;;12.13;11.53;;;24.60;77.50;;;;;;3565398;40;20486;-54
2021/05/13 04:56:45;;;;;;;11.88;11.38;;;24.60;77.50;;;;;;3565472;40;20486;-54
2021/05/13 04:59:12;;;;;;;11.30;10.90;;;24.60;77.50;;;;;;3565160;40;20228;-54
2021/05/13 05:01:41;;;;;;;12.50;11.90;;;24.60;77.50;;;;;;3566331;40;20475;-54
2021/05/13 05:04:08;;;;;;;12.23;11.63;;;24.70;77.50;;;;;;3566049;40;20482;-53
2021/05/13 05:06:38;;;;;;;12.13;11.60;;;24.70;77.50;;;;;;3564331;40;20494;-54
2021/05/13 05:09:11;;;;;;;12.10;11.60;;;24.70;77.40;;;;;;3564208;40;20504;-55
2021/05/13 05:11:42;;;;;;;11.23;10.80;;;24.70;77.40;;;;;;3565795;40;20493;-53
2021/05/13 05:14:13;;;;;;;11.70;11.30;;;24.70;77.30;;;;;;3565491;40;20493;-55
2021/05/13 05:16:44;;;;;;;12.47;11.97;;;24.70;77.30;;;;;;3565272;40;20495;-50
2021/05/13 05:19:14;;;;;;;10.90;10.50;;;24.70;77.30;;;;;;3564149;40;20482;-55
2021/05/13 05:21:45;;;;;;;11.30;10.80;;;24.70;78.10;;;;;;3555629;40;20506;-53
2021/05/13 05:24:12;;;;;;;11.50;11.10;;;24.70;77.20;;;;;;3555240;40;20911;-52
2021/05/13 05:26:42;;;;;;;12.00;11.50;;;24.80;77.30;;;;;;3562802;40;20541;-53
2021/05/13 05:29:12;;;;;;;11.63;11.10;;;24.80;77.30;;;;;;3554817;40;20514;-52
2021/05/13 05:31:42;;;;;;;12.90;12.20;;;24.80;77.20;;;;;;3563469;40;20489;-54
2021/05/13 05:34:09;;;;;;;12.30;11.70;;;24.80;77.20;;;;;;3563857;40;20542;-54
2021/05/13 05:36:38;;;;;;;11.90;11.50;;;24.80;77.20;;;;;;3564470;40;20695;-54
2021/05/13 05:39:08;;;;;;;11.80;11.30;;;24.80;77.10;;;;;;3564969;40;20861;-54
2021/05/13 05:41:38;;;;;;;12.10;11.50;;;24.80;77.10;;;;;;3565032;40;20523;-54
2021/05/13 05:44:07;;;;;;;12.13;11.63;;;24.80;77.10;;;;;;3563722;40;20479;-52
2021/05/13 05:46:35;;;;;;;11.87;11.37;;;24.80;77.00;;;;;;3563565;40;20489;-54
2021/05/13 05:49:05;;;;;;;12.30;11.80;;;24.80;77.00;;;;;;3565239;40;20484;-51
2021/05/13 05:51:33;;;;;;;12.90;12.30;;;24.80;77.00;;;;;;3555428;40;20746;-54
2021/05/13 05:54:03;;;;;;;11.60;11.20;;;24.80;77.00;;;;;;3565057;40;20898;-53
2021/05/13 05:56:31;;;;;;;12.00;11.50;;;24.80;76.90;;;;;;3563424;40;20489;-53
2021/05/13 05:59:00;;;;;;;11.63;11.23;;;24.80;76.90;;;;;;3564903;40;20517;-53
2021/05/13 06:01:27;;;;;;;11.77;11.20;;;24.90;77.10;;;;;;3566148;40;20621;-55
2021/05/13 06:03:55;;;;;;;12.10;11.60;;;24.90;77.00;;;;;;3565733;40;20953;-55
2021/05/13 06:06:24;;;;;;;12.52;11.68;;;24.90;77.00;;;;;;3564183;40;21058;-52
2021/05/13 06:08:52;;;;;;;12.48;11.88;;;24.90;77.10;;;;;;3565516;40;20937;-54
2021/05/13 06:11:19;;;;;;;11.27;10.87;;;24.90;77.10;;;;;;3565452;40;20577;-53
2021/05/13 06:13:47;;;;;;;10.90;10.40;;;24.90;77.00;;;;;;3564254;40;20729;-53
2021/05/13 06:16:14;;;;;;;11.10;10.63;;;24.90;76.90;;;;;;3565877;40;20735;-52
2021/05/13 06:18:52;;;;;;;10.87;10.37;;;24.90;77.00;;;;;;3565410;40;20501;-52
2021/05/13 06:21:19;;;;;;;11.67;11.17;;;24.90;77.00;;;;;;3564715;40;20856;-51
2021/05/13 06:23:50;;;;;;;10.60;10.20;;;24.90;76.90;;;;;;3565325;40;20526;-51
2021/05/13 06:26:22;;;;;;;12.03;11.57;;;24.80;76.80;;;;;;3565496;40;20483;-55
2021/05/13 06:28:50;;;;;;;12.20;11.70;;;24.80;76.90;;;;;;3566061;40;20501;-54
2021/05/13 06:31:19;;;;;;;11.40;10.90;;;24.80;76.90;;;;;;3564193;40;20497;-54
2021/05/13 06:33:47;;;;;;;11.43;11.00;;;24.80;76.90;;;;;;3564866;40;20493;-56
2021/05/13 06:36:14;;;;;;;11.87;11.27;;;24.80;76.90;;;;;;3565025;40;20854;-52
2021/05/13 06:38:43;;;;;;;11.93;11.52;;;24.80;76.50;;;;;;3562665;40;20482;-54
2021/05/13 06:41:11;;;;;;;11.97;11.27;;;24.80;73.60;;;;;;3555184;40;20232;-52
2021/05/13 06:43:39;;;;;;;11.67;10.80;;;24.80;73.40;;;;;;3564375;40;20543;-55
2021/05/13 06:46:06;;;;;;;10.90;10.50;;;24.80;74.50;;;;;;3564423;40;20517;-55
2021/05/13 06:48:34;;;;;;;10.80;10.40;;;24.80;75.00;;;;;;3565015;40;20484;-53
2021/05/13 06:51:01;;;;;;;11.07;10.67;;;24.80;75.00;;;;;;3564691;40;20540;-51
2021/05/13 06:53:29;;;;;;;12.17;11.60;;;24.80;74.30;;;;;;3557815;40;20498;-51
2021/05/13 06:55:56;;;;;;;11.47;10.97;;;24.80;74.00;;;;;;3555564;40;20715;-52
2021/05/13 06:58:25;;;;;;;11.40;10.90;;;24.80;74.00;;;;;;3553828;40;20557;-54
2021/05/13 07:00:52;;;;;;;11.43;10.93;;;24.80;73.90;;;;;;3554208;40;20479;-51
2021/05/13 07:03:20;;;;;;;11.50;10.97;;;24.80;73.80;;;;;;3554771;40;20572;-54
2021/05/13 07:05:47;;;;;;;11.23;10.83;;;24.80;73.60;;;;;;3555198;40;20533;-53
2021/05/13 07:08:13;;;;;;;11.17;10.77;;;24.80;73.50;;;;;;3553604;40;20493;-53
2021/05/13 07:10:41;;;;;;;11.50;11.00;;;24.70;73.20;;;;;;3554386;40;20510;-55
2021/05/13 07:13:09;;;;;;;11.13;10.73;;;24.70;73.10;;;;;;3553839;40;20493;-52
2021/05/13 07:15:37;;;;;;;11.90;11.20;;;24.70;72.70;;;;;;3555751;40;20491;-55
2021/05/13 07:18:05;;;;;;;11.20;10.60;;;24.70;73.20;;;;;;3555549;40;20476;-52
2021/05/13 07:20:33;;;;;;;12.87;11.67;;;24.70;72.30;;;;;;3553704;40;20482;-53
2021/05/13 07:23:00;;;;;;;15.47;13.07;;;24.70;72.50;;;;;;3555333;40;20529;-51
2021/05/13 07:25:28;;;;;;;12.90;11.70;;;24.70;72.80;;;;;;3554681;40;21091;-55
2021/05/13 07:27:54;;;;;;;12.70;11.77;;;24.70;73.10;;;;;;3555265;40;21472;-52
2021/05/13 07:30:22;;;;;;;13.60;12.50;;;24.70;73.40;;;;;;3546109;40;20743;-51
2021/05/13 07:32:51;;;;;;;13.47;12.17;;;24.70;73.60;;;;;;3555169;40;20889;-55
2021/05/13 07:35:18;;;;;;;12.53;11.73;;;24.70;73.60;;;;;;3546520;40;20484;-54
2021/05/13 07:37:47;;;;;;;12.10;11.23;;;24.70;73.40;;;;;;3557496;40;20506;-54
2021/05/13 07:40:17;;;;;;;12.97;11.70;;;24.80;73.40;;;;;;3564475;40;20490;-54
2021/05/13 07:42:45;;;;;;;12.30;11.70;;;24.80;73.40;;;;;;3564583;40;20508;-53
2021/05/13 07:45:13;;;;;;;12.40;11.60;;;24.70;73.10;;;;;;3564084;40;20485;-51
2021/05/13 07:47:41;;;;;;;12.13;11.23;;;24.80;73.10;;;;;;3565104;40;20481;-51
2021/05/13 07:50:12;;;;;;;11.40;10.70;;;24.80;72.90;;;;;;3563206;40;20487;-50
2021/05/13 07:52:40;;;;;;;12.20;11.37;;;24.80;72.70;;;;;;3559207;40;20494;-51
2021/05/13 07:55:10;;;;;;;11.87;11.30;;;24.80;72.60;;;;;;3553442;40;20867;-51
2021/05/13 07:57:37;;;;;;;11.00;10.60;;;24.80;72.40;;;;;;3552760;40;20479;-55
2021/05/13 08:00:04;;;;;;;11.60;10.90;;;24.70;73.10;;;;;;3554237;40;20531;-51
2021/05/13 08:02:52;;;;;;;10.77;10.07;;;24.70;72.50;;;;;;3542328;40;20512;-51
2021/05/13 08:05:21;;;;;;;10.43;9.95;;;24.70;72.40;;;;;;3564144;40;20485;-52
2021/05/13 08:07:48;;;;;;;10.40;9.90;;;24.70;72.20;;;;;;3563749;40;20608;-52
2021/05/13 08:10:16;;;;;;;10.40;9.90;;;24.70;72.10;;;;;;3563296;40;20513;-55
2021/05/13 08:12:43;;;;;;;11.27;10.50;;;24.70;72.00;;;;;;3561374;40;20872;-51
2021/05/13 08:15:12;;;;;;;11.60;10.83;;;24.70;72.00;;;;;;3563363;40;20485;-56
2021/05/13 08:17:39;;;;;;;11.43;9.37;;;24.70;71.90;;;;;;3563808;40;20486;-52
2021/05/13 08:20:08;;;;;;;10.47;9.70;;;24.70;71.80;;;;;;3562992;40;20529;-51
2021/05/13 08:22:37;;;;;;;10.20;9.70;;;24.70;71.70;;;;;;3562797;40;20488;-51
2021/05/13 08:25:06;;;;;;;9.93;9.43;;;24.70;71.60;;;;;;3553991;40;20892;-52
2021/05/13 08:27:33;;;;;;;9.70;9.30;;;24.70;71.60;;;;;;3564728;40;20481;-51
2021/05/13 08:30:01;;;;;;;9.73;9.20;;;24.70;71.40;;;;;;3565141;40;20956;-53
2021/05/13 08:32:29;;;;;;;10.70;10.10;;;24.70;71.20;;;;;;3564755;40;20483;-51
2021/05/13 08:34:58;;;;;;;10.50;9.90;;;24.70;71.20;;;;;;3564280;40;20478;-52
2021/05/13 08:37:27;;;;;;;9.63;9.30;;;24.70;71.10;;;;;;3563564;40;20466;-55
2021/05/13 08:39:55;;;;;;;10.00;9.50;;;24.70;71.00;;;;;;3564566;40;20502;-52
2021/05/13 08:42:23;;;;;;;10.27;9.77;;;24.70;70.90;;;;;;3564748;40;20482;-55
2021/05/13 08:44:52;;;;;;;10.07;9.47;;;24.70;70.90;;;;;;3563837;40;20481;-52
2021/05/13 08:47:19;;;;;;;9.67;9.17;;;24.70;70.70;;;;;;3563557;40;20592;-55
2021/05/13 08:49:46;;;;;;;9.50;9.10;;;24.70;70.60;;;;;;3559412;40;20505;-54
2021/05/13 08:52:15;;;;;;;10.00;9.40;;;24.60;70.60;;;;;;3556641;40;20478;-52
2021/05/13 08:54:54;;;;;;;10.68;9.77;;;24.60;71.00;;;;;;3545372;40;20487;-55
2021/05/13 08:57:22;;;;;;;10.90;10.30;;;24.60;71.30;;;;;;3544792;40;20305;-55
2021/05/13 08:59:50;;;;;;;11.57;10.50;;;24.60;71.10;;;;;;3554766;40;20482;-53
2021/05/13 09:02:19;;;;;;;11.27;10.60;;;24.60;71.10;;;;;;3554937;40;20491;-54
2021/05/13 09:04:48;;;;;;;11.20;10.57;;;24.50;71.30;;;;;;3554976;40;20482;-52
2021/05/13 09:07:21;;;;;;;10.37;9.80;;;24.50;71.50;;;;;;3556092;40;20491;-55
2021/05/13 09:09:57;;;;;;;10.57;9.97;;;24.50;71.70;;;;;;3556239;40;20478;-53
2021/05/13 09:12:27;;;;;;;10.03;9.53;;;24.50;71.80;;;;;;3553232;40;20597;-55
2021/05/13 09:14:59;;;;;;;11.93;11.23;;;24.50;71.90;;;;;;3557033;40;20483;-54
2021/05/13 09:17:27;;;;;;;12.43;11.00;;;24.50;72.10;;;;;;3554002;40;20513;-53
2021/05/13 09:19:55;;;;;;;10.47;9.87;;;24.50;72.20;;;;;;3553770;40;20479;-54
2021/05/13 09:22:25;;;;;;;10.67;10.00;;;24.50;72.30;;;;;;3563351;40;20494;-53
2021/05/13 09:24:55;;;;;;;10.85;9.98;;;24.50;72.40;;;;;;3563333;40;20560;-53
2021/05/13 09:27:26;;;;;;;11.67;10.83;;;24.50;72.60;;;;;;3559784;40;20598;-53
2021/05/13 09:30:08;;;;;;;11.85;11.18;;;24.50;72.60;;;;;;3553672;40;20487;-53
2021/05/13 09:32:37;;;;;;;11.32;10.82;;;24.50;72.60;;;;;;3554223;40;20239;-55
2021/05/13 09:35:11;;;;;;;12.33;11.37;;;24.50;72.60;;;;;;3554202;40;20235;-53
2021/05/13 09:37:43;;;;;;;11.60;10.90;;;24.50;72.60;;;;;;3555041;40;20508;-52
2021/05/13 09:40:12;;;;;;;11.80;11.10;;;24.50;72.60;;;;;;3554358;40;20496;-53
2021/05/13 09:42:40;;;;;;;11.23;10.43;;;24.50;72.70;;;;;;3554311;40;20581;-56
2021/05/13 09:45:10;;;;;;;12.70;11.43;;;24.50;72.80;;;;;;3553575;40;20755;-51
2021/05/13 09:47:38;;;;;;;12.17;11.07;;;24.50;72.80;;;;;;3544909;40;20489;-55
2021/05/13 09:50:14;;;;;;;12.63;11.60;;;24.50;72.80;;;;;;3563278;40;20495;-53
2021/05/13 09:52:51;;;;;;;12.70;11.83;;;24.50;72.80;;;;;;3564421;40;20493;-54
2021/05/13 09:55:25;;;;;;;13.17;12.43;;;24.50;72.90;;;;;;3565131;40;20485;-53
2021/05/13 09:58:04;;;;;;;12.30;11.60;;;24.50;73.00;;;;;;3563982;40;20485;-54
2021/05/13 10:00:43;;;;;;;12.90;12.17;;;24.40;72.90;;;;;;3563085;40;20479;-51
2021/05/13 10:03:13;;;;;;;12.07;11.07;;;24.40;73.00;;;;;;3563283;40;20981;-55
2021/05/13 10:05:44;;;;;;;12.60;11.70;;;24.40;73.00;;;;;;3555390;40;20572;-52
2021/05/13 10:08:12;;;;;;;13.33;12.50;;;24.40;73.10;;;;;;3565746;40;20227;-54
2021/05/13 10:10:40;;;;;;;12.50;11.60;;;24.40;73.20;;;;;;3564196;40;20509;-54
2021/05/13 10:13:10;;;;;;;12.80;12.10;;;24.40;73.20;;;;;;3562180;40;20892;-54
2021/05/13 10:15:39;;;;;;;12.23;11.60;;;24.40;73.20;;;;;;3563902;40;20491;-51
2021/05/13 10:18:23;;;;;;;11.17;10.57;;;24.40;74.00;;;;;;3564949;40;20235;-55
2021/05/13 10:20:58;;;;;;;12.97;12.07;;;24.50;73.40;;;;;;3564267;40;20501;-55
2021/05/13 10:23:26;;;;;;;12.87;11.90;;;24.40;73.20;;;;;;3563960;40;20489;-52
2021/05/13 10:25:53;;;;;;;12.17;11.57;;;24.40;73.30;;;;;;3564277;40;20488;-53
2021/05/13 10:28:28;;;;;;;12.32;11.55;;;24.40;73.40;;;;;;3564975;40;20951;-53
2021/05/13 10:31:06;;;;;;;11.47;10.87;;;24.40;73.40;;;;;;3563182;40;20241;-54
2021/05/13 10:33:48;;;;;;;11.50;10.90;;;24.40;73.50;;;;;;3563664;40;20482;-54
2021/05/13 10:36:17;;;;;;;11.33;10.73;;;24.40;73.50;;;;;;3564057;40;20500;-54
2021/05/13 10:38:50;;;;;;;11.53;10.67;;;24.40;73.50;;;;;;3564870;40;20558;-52
2021/05/13 10:41:37;;;;;;;11.53;10.90;;;24.40;73.50;;;;;;3554925;40;20881;-52
2021/05/13 10:44:39;;;;;;;10.50;10.00;;;24.40;73.50;;;;;;3564239;40;20481;-53
2021/05/13 10:47:10;;;;;;;11.57;10.80;;;24.40;73.60;;;;;;3565516;40;20846;-51
2021/05/13 10:49:50;;;;;;;11.37;10.73;;;24.40;73.60;;;;;;3564215;40;20224;-53
2021/05/13 10:52:56;;;;;;;13.60;11.20;;;24.40;73.70;;;;;;3563902;40;20489;-54
2021/05/13 10:55:38;;;;;;;12.20;11.50;;;24.40;73.70;;;;;;3563156;40;20756;-54
2021/05/13 10:58:05;;;;;;;11.30;10.80;;;24.40;73.70;;;;;;3562963;40;20530;-53
2021/05/13 11:00:34;;;;;;;11.10;10.43;;;24.40;73.70;;;;;;3564551;40;20499;-55
2021/05/13 11:03:19;;;;;;;11.57;11.00;;;24.40;73.80;;;;;;3553928;40;20481;-53
2021/05/13 11:05:47;;;;;;;11.45;10.65;;;24.40;73.90;;;;;;3563682;40;20236;-55
2021/05/13 11:08:44;;;;;;;11.47;10.90;;;24.40;73.90;;;;;;3563367;40;20303;-53
2021/05/13 11:11:12;;;;;;;11.97;11.17;;;24.40;73.90;;;;;;3564285;40;20493;-54
2021/05/13 11:13:44;;;;;;;11.65;11.05;;;24.40;73.90;;;;;;3554074;40;20909;-51
2021/05/13 11:16:52;;;;;;;12.47;11.77;;;24.40;73.90;;;;;;3564337;40;20252;-53
2021/05/13 11:19:24;;;;;;;12.20;11.50;;;24.40;74.00;;;;;;3563441;40;20490;-52
2021/05/13 11:22:06;;;;;;;11.57;10.97;;;24.40;74.00;;;;;;3556209;40;20501;-53
2021/05/13 11:24:36;;;;;;;13.03;12.27;;;24.40;74.00;;;;;;3564463;40;20958;-54
2021/05/13 11:27:05;;;;;;;12.13;11.50;;;24.30;73.90;;;;;;3563748;40;20503;-55
2021/05/13 11:29:50;;;;;;;12.00;11.40;;;24.30;74.00;;;;;;3555271;40;20557;-54
2021/05/13 11:32:20;;;;;;;11.70;10.90;;;24.30;74.00;;;;;;3553239;40;20498;-54
2021/05/13 11:34:47;;;;;;;11.73;11.13;;;24.30;74.10;;;;;;3553224;40;20502;-55
2021/05/13 11:37:37;;;;;;;11.40;10.77;;;24.30;74.10;;;;;;3552414;40;20236;-51
2021/05/13 11:40:25;;;;;;;11.73;11.00;;;24.30;74.10;;;;;;3553603;40;20484;-54
2021/05/13 11:43:17;;;;;;;11.90;11.20;;;24.30;74.20;;;;;;3552935;40;20486;-53
2021/05/13 11:45:44;;;;;;;11.13;10.53;;;24.30;74.20;;;;;;3553827;40;20494;-51
2021/05/13 11:48:28;;;;;;;12.00;11.23;;;24.30;74.20;;;;;;3553782;40;20479;-52
2021/05/13 11:50:58;;;;;;;11.30;10.50;;;24.30;74.20;;;;;;3552581;40;20540;-55
2021/05/13 11:53:25;;;;;;;11.93;11.10;;;24.30;74.20;;;;;;3553014;40;20492;-55
2021/05/13 11:55:54;;;;;;;11.07;10.47;;;24.30;74.20;;;;;;3549143;40;20491;-55
2021/05/13 11:58:45;;;;;;;11.23;10.63;;;24.30;74.30;;;;;;3552383;40;20479;-54
2021/05/13 12:01:30;;;;;;;11.03;10.50;;;24.20;74.20;;;;;;3554656;40;20503;-53
2021/05/13 12:04:24;;;;;;;11.10;10.50;;;24.30;74.40;;;;;;3552460;40;20500;-51
2021/05/13 12:07:00;;;;;;;11.77;10.90;;;24.30;74.40;;;;;;3542574;40;20503;-54
2021/05/13 12:09:30;;;;;;;11.43;10.47;;;24.30;74.30;;;;;;3553960;40;20592;-54
2021/05/13 12:11:57;;;;;;;10.93;10.43;;;24.30;74.40;;;;;;3554268;40;20506;-53
2021/05/13 12:14:27;;;;;;;10.50;10.00;;;24.20;74.30;;;;;;3545399;40;20813;-51
2021/05/13 12:16:55;;;;;;;10.67;10.17;;;24.20;74.30;;;;;;3554158;40;20244;-53
2021/05/13 12:19:23;;;;;;;11.80;10.90;;;24.30;74.40;;;;;;3554199;40;20483;-53
2021/05/13 12:21:53;;;;;;;11.40;10.80;;;24.20;74.40;;;;;;3554194;40;20237;-55
2021/05/13 12:24:27;;;;;;;11.50;10.90;;;24.30;74.50;;;;;;3553970;40;20786;-56
2021/05/13 12:26:54;;;;;;;11.30;10.60;;;24.30;74.50;;;;;;3555647;40;20749;-56
2021/05/13 12:29:23;;;;;;;11.18;10.57;;;24.30;74.40;;;;;;3555402;40;20476;-56
2021/05/13 12:31:52;;;;;;;10.48;9.93;;;24.20;74.40;;;;;;3553270;40;20236;-52
2021/05/13 12:34:34;;;;;;;10.50;10.10;;;24.30;74.50;;;;;;3552978;40;20245;-52
2021/05/13 12:37:02;;;;;;;11.30;10.63;;;24.30;74.50;;;;;;3553233;40;20894;-55
2021/05/13 12:39:31;;;;;;;10.67;10.20;;;24.30;74.40;;;;;;3551483;40;20494;-56
2021/05/13 12:41:59;;;;;;;10.30;9.90;;;24.30;74.50;;;;;;3551502;40;20489;-56
2021/05/13 12:44:28;;;;;;;10.77;10.23;;;24.30;74.50;;;;;;3551618;40;20549;-56